Time;durP1;ratioP1;P1;durP2;ratioP2;P2;SDS_P1;SDS_P2;PMS_P1;PMS_P2;Temp;Humidity;BMP_temperature;BMP_pressure;BME280_temperature;BME280_humidity;BME280_pressure;Samples;Min_cycle;Max_cycle;Signal;HPM_P1;HPM_P2
2023/01/28 00:00:06;;;;;;;8.10;6.20;;;;;;;4.72;73.40;98825.41;5076932;28;20076;-81
2023/01/28 00:02:35;;;;;;;6.93;6.23;;;;;;;4.70;73.71;98819.50;5075520;28;20417;-81
2023/01/28 00:05:01;;;;;;;6.67;5.97;;;;;;;4.03;73.40;98718.44;5076038;28;20100;-81
2023/01/28 00:07:26;;;;;;;6.23;5.00;;;;;;;4.01;73.73;98725.59;5076099;28;20056;-81
2023/01/28 00:09:52;;;;;;;7.70;5.33;;;;;;;3.92;73.51;98716.91;5075152;28;20047;-81
2023/01/28 00:12:18;;;;;;;5.70;5.10;;;;;;;4.23;73.51;98800.81;5075274;28;20025;-81
2023/01/28 00:14:45;;;;;;;6.87;6.10;;;;;;;4.27;73.68;98793.50;5077317;28;20025;-81
2023/01/28 00:17:11;;;;;;;8.33;6.00;;;;;;;4.34;73.65;98795.31;5077866;28;20020;-81
2023/01/28 00:19:37;;;;;;;7.27;6.07;;;;;;;3.90;73.47;98749.38;5077341;28;20052;-81
2023/01/28 00:22:03;;;;;;;7.53;6.20;;;;;;;4.57;73.84;98845.28;5077132;28;20021;-81
2023/01/28 00:24:28;;;;;;;7.10;6.40;;;;;;;4.58;73.91;98854.75;5076125;28;20012;-81
2023/01/28 00:26:54;;;;;;;7.07;6.37;;;;;;;4.58;74.01;98841.69;5076252;28;20088;-81
2023/01/28 00:29:19;;;;;;;7.93;6.50;;;;;;;4.64;73.97;98848.91;5076271;28;20056;-81
2023/01/28 00:31:44;;;;;;;7.83;6.00;;;;;;;4.50;74.05;98864.34;5075672;28;20039;-81
2023/01/28 00:34:10;;;;;;;7.67;6.87;;;;;;;4.40;73.94;98823.44;5076355;28;20028;-82
2023/01/28 00:36:38;;;;;;;6.60;5.90;;;;;;;3.95;74.10;98771.44;5075633;28;20142;-82
2023/01/28 00:39:04;;;;;;;7.90;7.10;;;;;;;4.42;74.22;98849.41;5073648;28;20413;-82
2023/01/28 00:41:30;;;;;;;8.40;6.93;;;;;;;3.90;74.29;98759.84;5073708;28;20078;-81
2023/01/28 00:43:55;;;;;;;8.37;7.57;;;;;;;3.77;74.00;98747.19;5073975;28;20013;-81
2023/01/28 00:46:21;;;;;;;9.40;6.87;;;;;;;4.17;74.07;98801.44;5073953;28;20096;-82
2023/01/28 00:48:47;;;;;;;7.40;6.60;;;;;;;3.63;74.14;98747.72;5072251;28;20027;-82
2023/01/28 00:51:16;;;;;;;8.10;7.03;;;;;;;3.64;73.87;98731.09;5073553;28;20021;-82
2023/01/28 00:53:42;;;;;;;8.10;6.63;;;;;;;4.23;73.74;98832.16;5073618;28;20464;-82
2023/01/28 00:56:12;;;;;;;9.10;7.43;;;;;;;4.51;74.07;98866.00;5073302;28;20532;-82
2023/01/28 00:58:37;;;;;;;8.80;7.17;;;;;;;4.16;73.92;98812.88;5074611;28;20051;-82
2023/01/28 01:01:12;;;;;;;7.43;6.63;;;;;;;4.07;73.97;98822.44;5073629;28;20103;-82
2023/01/28 01:03:38;;;;;;;8.23;6.47;;;;;;;4.46;73.83;98872.50;5072252;28;20020;-81
2023/01/28 01:06:04;;;;;;;7.90;6.80;;;;;;;4.40;73.82;98877.50;5072542;28;20020;-81
2023/01/28 01:08:34;;;;;;;8.33;7.00;;;;;;;3.81;74.14;98808.56;5076239;28;20104;-81
2023/01/28 01:11:03;;;;;;;9.67;7.70;;;;;;;3.93;73.99;98830.03;5076111;28;20027;-82
2023/01/28 01:13:30;;;;;;;8.80;7.50;;;;;;;4.33;74.43;98877.31;5077659;28;20033;-82
2023/01/28 01:16:06;;;;;;;8.97;7.37;;;;;;;4.37;74.06;98881.25;5075842;28;20035;-82
2023/01/28 01:18:33;;;;;;;7.87;6.60;;;;;;;4.39;73.84;98933.38;5078167;28;20020;-82
2023/01/28 01:21:00;;;;;;;7.57;6.63;;;;;;;4.31;74.37;98892.31;5077688;28;20052;-82
2023/01/28 01:23:26;;;;;;;6.73;6.07;;;;;;;3.67;73.98;98775.16;5071953;28;20554;-81
2023/01/28 01:25:52;;;;;;;7.53;6.13;;;;;;;4.32;73.82;98875.66;5072546;28;20025;-81
2023/01/28 01:28:18;;;;;;;9.77;7.67;;;;;;;3.68;74.17;98782.03;5071668;28;20104;-82
2023/01/28 01:30:43;;;;;;;8.90;7.17;;;;;;;3.86;74.25;98806.31;5072118;28;20025;-82
2023/01/28 01:33:08;;;;;;;8.30;6.87;;;;;;;3.96;74.13;98816.66;5073101;28;20025;-82
2023/01/28 01:35:34;;;;;;;7.70;6.87;;;;;;;3.88;73.88;98803.56;5072955;28;20021;-82
2023/01/28 01:37:59;;;;;;;7.30;6.23;;;;;;;4.26;73.89;98860.59;5076582;28;20016;-82
2023/01/28 01:40:25;;;;;;;9.03;7.17;;;;;;;4.08;73.79;98845.00;5076325;28;20024;-82
2023/01/28 01:42:50;;;;;;;9.83;7.20;;;;;;;3.77;73.57;98781.94;5075018;28;20025;-81
2023/01/28 01:45:16;;;;;;;7.40;6.23;;;;;;;4.37;73.62;98889.09;5076105;28;20028;-81
2023/01/28 01:48:17;;;;;;;7.57;6.60;;;;;;;4.49;73.40;98902.75;5074826;28;20027;-81
2023/01/28 01:50:51;;;;;;;7.57;6.70;;;;;;;4.14;73.79;98857.44;5074305;28;20040;-81
2023/01/28 01:53:19;;;;;;;8.30;6.33;;;;;;;3.64;73.73;98768.44;5075837;28;20016;-81
2023/01/28 01:55:48;;;;;;;7.20;6.43;;;;;;;3.69;73.41;98771.44;5075821;28;20051;-81
2023/01/28 01:58:17;;;;;;;9.03;7.50;;;;;;;4.53;73.49;98903.25;5075614;28;20028;-81
2023/01/28 02:00:43;;;;;;;8.03;7.23;;;;;;;3.89;73.47;98798.19;5075453;28;20481;-81
2023/01/28 02:03:10;;;;;;;7.87;6.80;;;;;;;3.91;73.57;98803.25;5077330;28;20029;-81
2023/01/28 02:05:36;;;;;;;8.03;6.80;;;;;;;4.61;73.52;98908.53;5077421;28;20080;-81
2023/01/28 02:08:21;;;;;;;9.80;7.73;;;;;;;4.63;73.65;98911.81;5078083;28;20059;-81
2023/01/28 02:11:07;;;;;;;8.03;6.70;;;;;;;4.57;73.52;98909.81;5079666;28;20025;-81
2023/01/28 02:13:40;;;;;;;9.13;7.83;;;;;;;4.32;73.53;98880.88;5083193;28;20047;-81
2023/01/28 02:16:07;;;;;;;8.30;7.33;;;;;;;4.19;73.83;98872.66;5085169;28;20025;-81
2023/01/28 02:18:33;;;;;;;10.30;8.97;;;;;;;4.54;73.76;98915.34;5074977;28;20103;-81
2023/01/28 02:21:20;;;;;;;9.27;8.30;;;;;;;4.54;73.69;98915.34;5075202;28;20045;-81
2023/01/28 02:23:54;;;;;;;10.50;7.60;;;;;;;4.53;73.95;98921.56;5074759;28;20417;-80
2023/01/28 02:26:35;;;;;;;9.70;8.70;;;;;;;4.49;73.47;98935.91;5077561;28;20508;-81
2023/01/28 02:29:04;;;;;;;10.57;8.90;;;;;;;4.44;73.51;98937.16;5080058;28;20020;-81
2023/01/28 02:31:45;;;;;;;11.63;9.30;;;;;;;4.36;73.77;98923.22;5079225;28;20074;-81
2023/01/28 02:34:38;;;;;;;11.87;9.70;;;;;;;4.41;73.61;98942.69;5080944;28;20020;-81
2023/01/28 02:37:08;;;;;;;13.30;9.57;;;;;;;4.03;73.50;98877.75;5082237;28;20021;-81
2023/01/28 02:39:39;;;;;;;10.90;9.10;;;;;;;4.43;73.65;98945.16;5083172;28;20071;-81
2023/01/28 02:42:25;;;;;;;11.17;8.77;;;;;;;4.03;73.67;98880.38;5084426;28;20517;-81
2023/01/28 02:44:51;;;;;;;10.70;9.60;;;;;;;4.43;73.58;98940.75;5087577;28;20077;-81
2023/01/28 02:50:04;;;;;;;9.80;8.50;;;;;;;4.29;73.51;98914.34;5097063;28;20036;-81
2023/01/28 02:55:29;;;;;;;10.37;9.27;;;;;;;4.38;73.44;98939.56;5079812;28;20512;-81
2023/01/28 02:58:08;;;;;;;10.98;9.15;;;;;;;4.36;73.37;98939.72;5079962;28;20513;-81
2023/01/28 03:00:57;;;;;;;11.23;8.97;;;;;;;4.31;73.62;98928.09;5078748;28;20483;-81
2023/01/28 03:03:30;;;;;;;10.43;9.27;;;;;;;4.44;73.49;98946.78;5075153;28;20449;-81
2023/01/28 03:06:06;;;;;;;11.10;9.17;;;;;;;4.21;73.33;98915.13;5075254;28;20023;-81
2023/01/28 03:37:08;;;;;;;10.40;8.97;;;;;;;4.33;73.43;98967.94;5073664;28;20027;-80
2023/01/28 03:39:34;;;;;;;10.40;9.30;;;;;;;3.91;73.45;98892.03;5074328;28;20096;-81
2023/01/28 03:42:01;;;;;;;11.80;8.83;;;;;;;4.33;73.62;98968.78;5072682;28;20115;-81
2023/01/28 03:47:11;;;;;;;8.90;8.00;;;;;;;4.17;73.43;98931.25;5074288;28;20031;-81
2023/01/28 03:49:48;;;;;;;10.27;9.17;;;;;;;4.33;73.63;98958.31;5074227;28;20024;-81
2023/01/28 03:52:15;;;;;;;9.57;8.33;;;;;;;4.32;73.45;98946.22;5074126;28;20024;-80
2023/01/28 03:54:40;;;;;;;10.33;8.80;;;;;;;3.92;73.50;98885.84;5074518;28;20059;-80
2023/01/28 03:57:06;;;;;;;9.33;8.43;;;;;;;4.16;73.39;98946.09;5073054;28;20020;-80
2023/01/28 03:59:33;;;;;;;9.57;8.57;;;;;;;4.31;73.24;98975.13;5072570;28;20501;-80
2023/01/28 04:01:58;;;;;;;10.40;8.43;;;;;;;4.20;73.38;98949.22;5073383;28;20520;-81
2023/01/28 04:04:24;;;;;;;8.37;7.30;;;;;;;3.80;73.57;98875.66;5077793;28;20020;-81
2023/01/28 04:06:53;;;;;;;9.87;8.20;;;;;;;3.66;73.22;98852.66;5075566;28;20031;-81
2023/01/28 04:09:22;;;;;;;9.47;7.80;;;;;;;4.02;73.36;98937.03;5074888;28;20028;-81
2023/01/28 04:11:49;;;;;;;9.90;8.90;;;;;;;4.34;73.38;98972.19;5075979;28;20024;-81
2023/01/28 04:14:18;;;;;;;8.20;7.03;;;;;;;4.35;73.61;98979.88;5076063;28;20025;-81
2023/01/28 04:16:43;;;;;;;9.03;7.93;;;;;;;4.22;73.28;98955.94;5077545;28;20047;-81
2023/01/28 04:19:11;;;;;;;9.17;8.27;;;;;;;4.37;73.63;98987.56;5077484;28;20437;-81
2023/01/28 04:21:37;;;;;;;8.17;7.37;;;;;;;4.32;73.28;98971.53;5076123;28;20116;-81
2023/01/28 04:24:03;;;;;;;8.60;7.73;;;;;;;4.17;73.46;98960.81;5077920;28;20495;-81
2023/01/28 04:26:28;;;;;;;9.87;8.30;;;;;;;3.80;73.25;98898.31;5077931;28;20023;-81
2023/01/28 04:28:53;;;;;;;8.27;7.33;;;;;;;4.06;73.17;98934.94;5075882;28;20501;-81
2023/01/28 04:31:19;;;;;;;9.20;8.03;;;;;;;4.42;73.35;99001.00;5075744;28;20039;-80
2023/01/28 04:33:44;;;;;;;9.67;7.80;;;;;;;4.13;73.50;98949.84;5076470;28;20098;-81
2023/01/28 04:36:10;;;;;;;8.40;7.53;;;;;;;4.41;73.11;99001.97;5076146;28;20462;-80
2023/01/28 04:38:35;;;;;;;8.63;7.60;;;;;;;3.92;72.92;98925.03;5076683;28;20033;-81
2023/01/28 04:41:00;;;;;;;8.70;7.63;;;;;;;4.07;73.35;98962.69;5076199;28;20034;-81
2023/01/28 04:43:26;;;;;;;7.67;6.93;;;;;;;3.97;73.11;98935.84;5077084;28;20091;-80
2023/01/28 04:45:51;;;;;;;8.40;7.10;;;;;;;3.81;73.45;98937.34;5076634;28;20619;-80
2023/01/28 04:48:17;;;;;;;8.97;7.47;;;;;;;4.07;73.23;98953.06;5073611;28;20457;-80
2023/01/28 04:50:44;;;;;;;8.80;7.60;;;;;;;3.88;73.36;98916.66;5071827;28;20052;-80
2023/01/28 04:53:10;;;;;;;8.80;7.90;;;;;;;4.51;73.18;99007.97;5071673;28;20103;-80
2023/01/28 04:55:36;;;;;;;8.20;7.40;;;;;;;4.15;73.27;98957.53;5072524;28;20111;-80
2023/01/28 04:58:01;;;;;;;9.10;7.17;;;;;;;4.57;73.18;99001.31;5071553;28;20462;-81
2023/01/28 05:00:27;;;;;;;7.77;6.97;;;;;;;3.85;73.03;98885.63;5072826;28;20024;-80
2023/01/28 05:02:52;;;;;;;7.67;6.87;;;;;;;4.20;72.87;98957.06;5075031;28;20017;-80
2023/01/28 05:05:18;;;;;;;9.07;7.67;;;;;;;4.53;73.12;99010.44;5075535;28;20016;-81
2023/01/28 05:07:49;;;;;;;8.23;7.03;;;;;;;4.47;72.91;99023.13;5076949;28;20020;-80
2023/01/28 05:10:14;;;;;;;10.27;8.27;;;;;;;4.49;73.36;99033.44;5076078;28;20024;-80
2023/01/28 05:12:42;;;;;;;7.30;6.60;;;;;;;3.77;73.06;98922.94;5076605;28;20031;-80
2023/01/28 05:15:08;;;;;;;7.67;6.87;;;;;;;4.45;72.97;99024.22;5076982;28;20035;-80
2023/01/28 05:17:33;;;;;;;7.77;6.97;;;;;;;3.76;72.80;98923.09;5075276;28;20021;-81
2023/01/28 05:19:59;;;;;;;7.93;7.10;;;;;;;4.32;72.94;99013.34;5072198;28;20049;-80
2023/01/28 05:22:24;;;;;;;7.03;6.33;;;;;;;3.15;73.01;98822.03;5072415;28;20042;-81
2023/01/28 05:24:49;;;;;;;8.37;7.30;;;;;;;4.07;72.81;98967.91;5071100;28;20013;-80
2023/01/28 05:27:15;;;;;;;7.90;6.47;;;;;;;4.22;72.81;99002.16;5072178;28;20126;-80
2023/01/28 05:29:40;;;;;;;8.23;7.10;;;;;;;3.84;72.32;98941.44;5072116;28;20017;-80
2023/01/28 05:32:05;;;;;;;8.03;7.23;;;;;;;4.07;72.65;98978.34;5070669;28;20008;-80
2023/01/28 05:34:31;;;;;;;9.07;6.90;;;;;;;2.93;72.61;98796.38;5072014;28;20409;-80
2023/01/28 05:36:56;;;;;;;7.43;6.63;;;;;;;4.33;72.49;99010.59;5071995;28;20092;-80
2023/01/28 05:39:22;;;;;;;7.97;7.17;;;;;;;4.15;72.80;98976.63;5071774;28;20021;-80
2023/01/28 05:41:47;;;;;;;8.00;6.60;;;;;;;4.32;72.49;99002.88;5071476;28;20060;-80
2023/01/28 05:44:12;;;;;;;9.17;7.23;;;;;;;4.66;72.42;99048.28;5071411;28;20035;-80
2023/01/28 05:46:44;;;;;;;7.60;6.00;;;;;;;4.67;72.56;99073.44;5071537;28;20060;-80
2023/01/28 05:49:12;;;;;;;6.88;5.97;;;;;;;4.35;72.58;99011.25;5073377;28;20016;-79
2023/01/28 05:51:38;;;;;;;6.20;5.00;;;;;;;4.02;72.54;98967.53;5074346;28;20036;-80
2023/01/28 05:54:04;;;;;;;8.67;6.23;;;;;;;4.01;72.06;98977.16;5074926;28;20074;-80
2023/01/28 05:56:29;;;;;;;9.33;6.00;;;;;;;4.34;72.56;99017.44;5074242;28;20024;-80
2023/01/28 05:58:55;;;;;;;8.53;6.23;;;;;;;4.27;72.22;99011.19;5076636;28;20077;-80
2023/01/28 06:01:20;;;;;;;7.10;5.80;;;;;;;4.44;72.42;99038.28;5080976;28;20028;-79
2023/01/28 06:03:46;;;;;;;6.37;5.30;;;;;;;2.87;72.09;98785.56;5075758;28;20073;-81
2023/01/28 06:06:11;;;;;;;6.23;5.40;;;;;;;4.18;71.86;99026.94;5074982;28;20025;-80
2023/01/28 06:08:36;;;;;;;5.90;4.83;;;;;;;3.96;71.93;98971.56;5075283;28;20162;-80
2023/01/28 06:11:02;;;;;;;5.93;5.33;;;;;;;4.73;71.96;99113.84;5074755;28;20024;-80
2023/01/28 06:13:27;;;;;;;7.53;5.30;;;;;;;4.03;71.71;98970.00;5074706;28;20031;-80
2023/01/28 06:15:53;;;;;;;6.70;5.10;;;;;;;4.34;71.84;99025.28;5074479;28;20018;-80
2023/01/28 06:18:18;;;;;;;4.93;4.30;;;;;;;3.90;71.78;98959.13;5074725;28;20021;-80
2023/01/28 06:20:43;;;;;;;5.67;4.43;;;;;;;4.58;71.75;99074.34;5074336;28;20036;-80
2023/01/28 06:23:09;;;;;;;4.70;4.20;;;;;;;4.79;71.77;99108.03;5073529;28;20393;-80
2023/01/28 06:25:34;;;;;;;5.57;4.33;;;;;;;3.97;71.75;98990.69;5074744;28;20021;-80
2023/01/28 06:28:00;;;;;;;5.33;4.30;;;;;;;4.21;71.53;99029.25;5074439;28;20493;-80
2023/01/28 06:30:25;;;;;;;7.53;5.30;;;;;;;3.71;71.56;98960.06;5072865;28;20025;-80
2023/01/28 06:32:56;;;;;;;7.50;5.00;;;;;;;4.25;71.64;99041.88;5074863;28;20049;-79
2023/01/28 06:35:22;;;;;;;6.20;5.27;;;;;;;4.51;71.57;99086.41;5078241;28;20027;-80
2023/01/28 06:37:47;;;;;;;6.90;5.47;;;;;;;4.37;71.41;99058.97;5077810;28;20028;-80
2023/01/28 06:40:12;;;;;;;7.10;4.80;;;;;;;4.64;71.58;99102.50;5077907;28;20048;-80
2023/01/28 06:42:38;;;;;;;7.03;5.87;;;;;;;4.50;71.59;99073.47;5076343;28;20024;-80
2023/01/28 06:45:04;;;;;;;7.20;5.33;;;;;;;4.66;71.56;99104.97;5077787;28;20052;-79
2023/01/28 06:47:29;;;;;;;6.53;5.47;;;;;;;3.89;71.75;98983.59;5076408;28;20032;-80
2023/01/28 06:49:54;;;;;;;4.43;4.03;;;;;;;4.51;71.39;99103.88;5073987;28;20027;-80
2023/01/28 06:52:20;;;;;;;5.27;4.43;;;;;;;4.22;71.44;99054.41;5073804;28;20550;-80
2023/01/28 06:54:45;;;;;;;7.03;5.03;;;;;;;4.22;71.61;99044.78;5073831;28;20024;-80
2023/01/28 06:57:10;;;;;;;9.10;6.95;;;;;;;4.56;71.60;99086.75;5073676;28;20462;-80
2023/01/28 06:59:36;;;;;;;9.43;6.40;;;;;;;4.96;71.42;99153.44;5073624;28;20031;-80
2023/01/28 07:02:01;;;;;;;4.97;4.47;;;;;;;4.97;71.48;99150.66;5073736;28;20020;-79
2023/01/28 07:04:27;;;;;;;5.10;4.50;;;;;;;4.69;71.57;99108.13;5073700;28;20481;-80
2023/01/28 07:06:52;;;;;;;5.27;4.70;;;;;;;4.87;71.19;99131.63;5073694;28;20028;-80
2023/01/28 07:09:17;;;;;;;4.53;4.13;;;;;;;5.05;71.28;99181.31;5073695;28;20113;-80
2023/01/28 07:11:43;;;;;;;7.03;4.33;;;;;;;4.67;71.24;99117.91;5073681;28;20028;-80
2023/01/28 07:14:08;;;;;;;6.00;5.17;;;;;;;4.47;70.99;99085.06;5073569;28;20016;-79
2023/01/28 07:16:33;;;;;;;6.97;6.03;;;;;;;5.05;71.02;99191.78;5074157;28;20029;-80
2023/01/28 07:18:59;;;;;;;5.57;4.93;;;;;;;4.34;70.55;99069.72;5071881;28;20024;-79
2023/01/28 07:21:24;;;;;;;6.80;6.10;;;;;;;4.72;70.91;99127.91;5073131;28;20055;-79
2023/01/28 07:23:50;;;;;;;6.20;5.20;;;;;;;4.52;70.69;99108.13;5073227;28;20043;-80
2023/01/28 07:26:15;;;;;;;6.37;5.60;;;;;;;4.88;71.24;99158.59;5073315;28;20028;-79
2023/01/28 07:28:40;;;;;;;8.57;7.30;;;;;;;4.76;70.96;99156.22;5072028;28;20028;-80
2023/01/28 07:31:06;;;;;;;9.03;7.43;;;;;;;4.63;71.02;99119.19;5073325;28;20028;-79
2023/01/28 07:33:31;;;;;;;9.97;8.30;;;;;;;5.03;70.67;99176.22;5076387;28;20024;-79
2023/01/28 07:35:57;;;;;;;8.87;7.60;;;;;;;4.40;70.64;99068.28;5076637;28;20055;-80
2023/01/28 07:38:22;;;;;;;12.53;7.97;;;;;;;4.60;70.76;99098.56;5074893;28;20059;-79
2023/01/28 07:40:48;;;;;;;12.37;10.03;;;;;;;5.22;71.01;99184.91;5076065;28;20107;-80
2023/01/28 07:43:13;;;;;;;8.47;6.93;;;;;;;4.83;70.67;99114.59;5075316;28;20081;-79
2023/01/28 07:45:39;;;;;;;9.70;7.60;;;;;;;5.08;70.08;99150.41;5076962;28;20020;-79
2023/01/28 07:48:06;;;;;;;11.97;8.63;;;;;;;5.09;70.00;99165.16;5076797;28;20477;-79
2023/01/28 07:50:35;;;;;;;13.73;8.00;;;;;;;4.92;69.79;99152.91;5075031;28;20082;-80
2023/01/28 07:53:06;;;;;;;9.20;7.17;;;;;;;5.26;70.18;99194.09;5076643;28;20551;-80
2023/01/28 07:55:34;;;;;;;14.50;8.45;;;;;;;5.17;69.90;99195.78;5076785;28;20089;-79
2023/01/28 07:58:01;;;;;;;9.17;7.47;;;;;;;4.92;69.62;99149.47;5076568;28;20028;-79
2023/01/28 08:00:29;;;;;;;11.03;8.00;;;;;;;5.40;69.81;99214.47;5076030;28;20031;-79
2023/01/28 08:02:56;;;;;;;10.00;8.67;;;;;;;5.43;69.56;99219.41;5076851;28;20090;-79
2023/01/28 08:05:22;;;;;;;11.07;8.97;;;;;;;4.82;68.95;99122.59;5076756;28;20024;-79
2023/01/28 08:07:48;;;;;;;15.13;11.00;;;;;;;5.47;69.54;99225.97;5074894;28;20028;-80
2023/01/28 08:10:15;;;;;;;11.55;9.15;;;;;;;5.51;69.21;99234.34;5076343;28;20025;-80
2023/01/28 08:12:50;;;;;;;9.43;8.50;;;;;;;5.54;68.86;99228.81;5076361;28;20086;-80
2023/01/28 08:15:15;;;;;;;14.18;10.13;;;;;;;4.73;68.76;99098.16;5075984;28;20529;-79
2023/01/28 08:17:41;;;;;;;11.85;9.18;;;;;;;5.20;68.94;99177.19;5076785;28;20064;-79
2023/01/28 08:20:07;;;;;;;10.48;8.95;;;;;;;5.21;68.94;99181.47;5076247;28;20101;-79
2023/01/28 08:22:32;;;;;;;15.93;11.13;;;;;;;5.67;68.86;99252.78;5074918;28;20029;-79
2023/01/28 08:24:57;;;;;;;18.13;12.95;;;;;;;5.30;68.69;99190.19;5075421;28;20473;-80
2023/01/28 08:27:23;;;;;;;20.83;15.88;;;;;;;5.61;68.94;99240.31;5073567;28;20028;-79
2023/01/28 08:29:48;;;;;;;25.42;18.35;;;;;;;4.98;69.10;99149.69;5073215;28;20028;-80
2023/01/28 08:32:14;;;;;;;25.85;19.33;;;;;;;5.31;68.82;99189.22;5075460;28;20033;-80
2023/01/28 08:34:39;;;;;;;21.35;15.77;;;;;;;5.35;69.25;99190.56;5070744;28;20036;-79
2023/01/28 08:37:05;;;;;;;16.00;11.23;;;;;;;5.69;68.97;99242.97;5071922;28;20020;-79
2023/01/28 08:39:30;;;;;;;13.27;10.27;;;;;;;5.80;69.51;99249.75;5071717;28;20036;-79
2023/01/28 08:41:56;;;;;;;14.95;11.68;;;;;;;5.35;70.08;99180.06;5071568;28;20024;-79
2023/01/28 08:44:21;;;;;;;19.27;13.77;;;;;;;5.46;69.21;99199.94;5071577;28;20085;-79
2023/01/28 08:46:46;;;;;;;15.95;12.98;;;;;;;5.25;69.40;99168.88;5071455;28;20055;-79
2023/01/28 08:49:12;;;;;;;11.45;10.25;;;;;;;5.87;68.86;99248.16;5071837;28;20032;-79
2023/01/28 08:51:37;;;;;;;15.00;10.55;;;;;;;5.68;68.60;99223.81;5071658;28;20032;-79
2023/01/28 08:54:02;;;;;;;17.58;11.90;;;;;;;5.91;68.52;99221.53;5074242;28;20123;-81
2023/01/28 08:56:29;;;;;;;12.73;11.40;;;;;;;6.16;68.33;99269.66;5075727;28;20035;-79
2023/01/28 08:58:54;;;;;;;11.60;9.60;;;;;;;5.80;67.88;99202.59;5071474;28;20016;-79
2023/01/28 09:01:20;;;;;;;12.63;10.10;;;;;;;5.58;68.42;99154.19;5071653;28;20027;-79
2023/01/28 09:03:45;;;;;;;10.02;8.50;;;;;;;5.69;68.15;99177.50;5071334;28;20451;-79
2023/01/28 09:06:10;;;;;;;11.25;9.02;;;;;;;6.28;67.58;99262.34;5071580;28;20028;-80
2023/01/28 09:08:36;;;;;;;11.68;8.95;;;;;;;5.68;67.64;99160.13;5071404;28;20074;-79
2023/01/28 09:11:01;;;;;;;7.03;5.95;;;;;;;5.57;67.51;99145.53;5070039;28;20039;-79
2023/01/28 09:13:27;;;;;;;7.65;6.45;;;;;;;6.38;67.46;99250.75;5071202;28;20025;-79
2023/01/28 09:15:53;;;;;;;8.90;5.82;;;;;;;6.22;67.45;99234.97;5071128;28;20036;-80
2023/01/28 09:18:18;;;;;;;7.65;6.78;;;;;;;6.25;67.51;99226.78;5071114;28;20029;-79
2023/01/28 09:20:44;;;;;;;6.03;5.43;;;;;;;5.80;67.05;99158.06;5069915;28;20044;-79
2023/01/28 09:23:10;;;;;;;9.32;7.70;;;;;;;6.46;66.57;99252.59;5069960;28;20163;-79
2023/01/28 09:25:36;;;;;;;6.88;4.93;;;;;;;5.79;67.15;99154.63;5071157;28;20028;-80
2023/01/28 09:28:02;;;;;;;6.90;5.50;;;;;;;6.56;67.08;99255.91;5071199;28;20157;-79
2023/01/28 09:30:28;;;;;;;5.03;4.53;;;;;;;6.06;66.48;99198.19;5069771;28;20020;-80
2023/01/28 09:32:55;;;;;;;5.05;3.78;;;;;;;6.46;66.97;99251.75;5071386;28;20028;-80
2023/01/28 09:35:21;;;;;;;5.53;3.13;;;;;;;6.49;66.27;99248.81;5074724;28;20032;-79
2023/01/28 09:37:47;;;;;;;3.78;3.22;;;;;;;5.88;66.26;99164.16;5075543;28;20097;-80
2023/01/28 09:40:34;;;;;;;4.32;3.35;;;;;;;5.87;66.02;99159.91;5075440;28;20482;-79
2023/01/28 09:43:24;;;;;;;4.55;3.97;;;;;;;6.44;66.42;99246.66;5075393;28;20039;-80
2023/01/28 09:45:54;;;;;;;6.88;5.50;;;;;;;6.44;66.65;99224.88;5073678;28;20113;-79
2023/01/28 09:48:23;;;;;;;4.72;3.83;;;;;;;6.63;66.71;99241.16;5074939;28;20507;-80
2023/01/28 09:50:52;;;;;;;6.05;4.78;;;;;;;6.56;65.92;99229.66;5074940;28;20389;-80
2023/01/28 09:53:17;;;;;;;6.50;5.05;;;;;;;6.65;65.88;99233.13;5073515;28;20028;-80
2023/01/28 09:55:47;;;;;;;6.93;5.60;;;;;;;6.12;65.29;99154.81;5074639;28;20024;-80
2023/01/28 09:58:16;;;;;;;5.25;4.75;;;;;;;6.49;64.46;99227.84;5074792;28;20032;-80
2023/01/28 10:01:03;;;;;;;6.30;5.22;;;;;;;6.28;64.06;99179.28;5074830;28;20020;-79
2023/01/28 10:03:43;;;;;;;7.53;6.68;;;;;;;6.72;64.34;99241.22;5074542;28;20024;-81
2023/01/28 10:06:27;;;;;;;6.35;5.35;;;;;;;6.69;64.56;99243.16;5074749;28;20046;-80
2023/01/28 10:08:58;;;;;;;6.63;6.03;;;;;;;6.75;63.61;99244.34;5074423;28;20028;-80
2023/01/28 10:11:50;;;;;;;8.60;7.07;;;;;;;6.83;64.09;99240.91;5074643;28;20490;-79
2023/01/28 10:14:52;;;;;;;8.95;6.50;;;;;;;6.83;64.14;99206.78;5074361;28;20052;-79
2023/01/28 10:17:26;;;;;;;6.55;5.45;;;;;;;7.12;63.80;99232.56;5074286;28;20447;-79
2023/01/28 10:20:15;;;;;;;6.90;6.15;;;;;;;7.18;63.13;99237.16;5074364;28;20059;-80
2023/01/28 10:22:48;;;;;;;8.80;7.43;;;;;;;7.23;63.12;99226.97;5074342;28;20025;-80
2023/01/28 10:25:19;;;;;;;8.30;7.40;;;;;;;7.33;63.39;99235.53;5075261;28;20020;-79
2023/01/28 10:27:47;;;;;;;8.25;6.30;;;;;;;7.03;62.82;99186.28;5073364;28;20021;-80
2023/01/28 10:30:19;;;;;;;7.03;5.88;;;;;;;7.40;62.58;99233.88;5074929;28;20112;-79
2023/01/28 10:33:04;;;;;;;;;;;;;;;7.34;61.73;99237.97;5075027;28;20039;-79
2023/01/28 10:35:40;;;;;;;7.38;6.57;;;;;;;7.40;62.18;99228.63;5074101;28;19920;-80
2023/01/28 10:38:12;;;;;;;7.68;6.97;;;;;;;7.39;61.66;99221.72;5074222;28;20032;-79
2023/01/28 10:40:40;;;;;;;10.50;8.23;;;;;;;7.30;61.73;99213.03;5074461;28;20083;-79
2023/01/28 10:43:07;;;;;;;8.25;7.35;;;;;;;7.01;61.31;99162.84;5072665;28;20483;-79
2023/01/28 10:45:41;;;;;;;8.80;7.10;;;;;;;7.08;60.45;99165.63;5073128;28;20028;-79
2023/01/28 10:48:16;;;;;;;11.80;8.52;;;;;;;6.93;61.40;99149.72;5073824;28;20035;-80
2023/01/28 10:50:55;;;;;;;8.45;7.55;;;;;;;6.96;60.15;99176.44;5072555;28;20048;-80
2023/01/28 10:53:39;;;;;;;9.13;7.93;;;;;;;7.18;61.09;99224.84;5073929;28;20465;-80
2023/01/28 10:56:09;;;;;;;9.27;7.40;;;;;;;7.38;61.70;99233.22;5073462;28;20099;-79
2023/01/28 10:59:05;;;;;;;8.10;6.78;;;;;;;7.29;61.33;99223.69;5072192;28;20028;-80
2023/01/28 11:01:56;;;;;;;11.98;8.98;;;;;;;6.72;61.74;99120.53;5073249;28;20059;-80
2023/01/28 11:04:29;;;;;;;9.50;7.53;;;;;;;6.75;61.49;99110.53;5073953;28;20036;-81
2023/01/28 11:07:02;;;;;;;8.43;7.20;;;;;;;7.34;61.08;99206.47;5074301;28;20489;-80
2023/01/28 11:09:33;;;;;;;8.30;7.35;;;;;;;7.50;61.28;99237.19;5074252;28;20119;-81
2023/01/28 11:12:18;;;;;;;12.70;7.80;;;;;;;7.46;60.08;99229.78;5074220;28;20024;-81
2023/01/28 11:14:53;;;;;;;8.25;6.50;;;;;;;7.03;60.72;99167.91;5072675;28;20067;-81
2023/01/28 11:17:23;;;;;;;6.90;5.93;;;;;;;7.61;61.17;99251.78;5073928;28;20111;-81
2023/01/28 11:19:51;;;;;;;8.68;6.90;;;;;;;7.30;61.34;99185.94;5073862;28;20040;-82
2023/01/28 11:22:40;;;;;;;8.63;6.97;;;;;;;7.35;61.19;99207.28;5078367;28;20070;-81
2023/01/28 11:25:36;;;;;;;7.38;6.53;;;;;;;7.48;59.93;99223.38;5092355;28;20031;-80
2023/01/28 11:28:14;;;;;;;8.75;6.53;;;;;;;7.13;60.94;99160.69;5073686;28;20546;-80
2023/01/28 11:30:40;;;;;;;7.72;6.88;;;;;;;7.27;60.59;99194.97;5073949;28;20477;-80
2023/01/28 11:33:20;;;;;;;13.07;10.02;;;;;;;7.65;60.55;99232.06;5073507;28;20089;-80
2023/01/28 11:36:14;;;;;;;7.10;5.82;;;;;;;7.62;59.96;99216.63;5073714;28;20025;-81
2023/01/28 11:38:56;;;;;;;7.95;6.53;;;;;;;7.69;59.38;99228.13;5073669;28;20028;-81
2023/01/28 11:41:29;;;;;;;7.35;6.05;;;;;;;7.28;59.80;99183.50;5073505;28;20516;-81
2023/01/28 11:43:55;;;;;;;7.45;5.90;;;;;;;7.28;59.53;99177.41;5077057;28;20021;-80
2023/01/28 11:46:38;;;;;;;7.20;5.32;;;;;;;7.65;59.68;99234.69;5083216;28;20090;-80
2023/01/28 11:49:26;;;;;;;6.30;5.60;;;;;;;7.57;57.20;99238.16;5073608;28;20501;-80
2023/01/28 11:52:02;;;;;;;5.57;4.90;;;;;;;7.55;58.47;99239.31;5072888;28;20493;-81
2023/01/28 11:54:39;;;;;;;7.43;6.03;;;;;;;7.64;59.34;99228.63;5072916;28;20420;-80
2023/01/28 11:57:30;;;;;;;8.05;6.28;;;;;;;7.16;57.97;99150.69;5071904;28;20512;-80
2023/01/28 12:00:02;;;;;;;6.55;5.57;;;;;;;7.37;58.63;99179.03;5072705;28;20428;-80
2023/01/28 12:02:49;;;;;;;6.72;6.10;;;;;;;7.82;58.50;99238.09;5071367;28;20127;-80
2023/01/28 12:05:21;;;;;;;8.43;6.70;;;;;;;7.91;58.74;99239.72;5071239;28;20025;-80
2023/01/28 12:07:46;;;;;;;8.07;6.40;;;;;;;7.98;58.97;99238.88;5072646;28;20560;-80
2023/01/28 12:10:24;;;;;;;7.13;6.10;;;;;;;7.94;57.74;99239.38;5072375;28;20104;-80
2023/01/28 12:13:07;;;;;;;7.65;5.75;;;;;;;7.82;58.36;99232.84;5072571;28;20021;-80
2023/01/28 12:16:02;;;;;;;7.30;6.32;;;;;;;7.86;58.34;99239.41;5072395;28;20551;-80
2023/01/28 12:19:06;;;;;;;7.50;6.13;;;;;;;7.84;57.88;99242.22;5071222;28;20107;-79
2023/01/28 12:21:46;;;;;;;6.75;5.72;;;;;;;7.84;58.08;99249.28;5070859;28;20041;-80
2023/01/28 12:24:24;;;;;;;9.35;5.70;;;;;;;7.88;58.19;99251.41;5072110;28;20024;-80
2023/01/28 12:27:01;;;;;;;6.63;5.20;;;;;;;7.85;58.46;99248.28;5072984;28;20060;-80